createdAt,value
2022-11-03T11:43:19.195Z,52.22
2022-11-03T11:44:19.056Z,52.04
2022-11-03T11:45:19.170Z,52.04
2022-11-03T11:46:19.422Z,51.97
2022-11-03T11:47:18.936Z,52.67
2022-11-03T11:48:21.335Z,52.77
2022-11-03T11:49:18.847Z,52.55
2022-11-03T11:58:33.676Z,51.51
2022-11-03T11:59:33.472Z,51.09
2022-11-03T12:02:34.594Z,50.76
2022-11-03T12:03:34.994Z,51.21
2022-11-03T12:04:33.340Z,51.72
2022-11-03T12:08:03.896Z,51.59
2022-11-03T12:09:06.598Z,51.42
2022-11-03T12:10:00.768Z,51.37
2022-11-03T12:11:02.193Z,51.37
2022-11-03T12:19:51.965Z,49.16
2022-11-03T12:21:21.316Z,48.96
2022-11-03T12:22:26.344Z,49.16
2022-11-03T12:23:19.044Z,49.07
2022-11-03T12:24:04.559Z,48.57
2022-11-03T12:24:53.798Z,48.86
2022-11-03T12:25:42.063Z,48.96
2022-11-03T12:26:47.492Z,48.54
2022-11-03T12:27:52.042Z,48.57
2022-11-03T12:28:34.739Z,49.14
2022-11-03T12:51:49.545Z,50.77
2022-11-03T12:52:49.339Z,51.20
2022-11-03T12:53:49.473Z,51.50
2022-11-03T12:54:49.472Z,52.39
2022-11-03T12:55:49.585Z,53.49
2022-11-03T12:56:49.312Z,54.10
2022-11-03T12:57:49.979Z,54.39
2022-11-03T12:58:49.250Z,55.09
2022-11-03T12:59:49.383Z,58.39
2022-11-03T13:00:54.929Z,61.32
2022-11-03T13:01:50.699Z,62.76
2022-11-03T13:02:49.528Z,62.56
2022-11-03T13:03:49.492Z,67.04
2022-11-03T13:04:49.227Z,68.66
2022-11-03T13:05:49.541Z,70.92
2022-11-03T13:06:51.234Z,72.80
2022-11-03T13:07:49.435Z,66.94
2022-11-03T13:08:52.229Z,63.17
2022-11-03T13:09:50.431Z,54.28
2022-11-03T13:10:49.175Z,43.15
2022-11-03T13:11:49.400Z,40.34
2022-11-03T13:12:49.419Z,37.86
2022-11-03T13:13:49.377Z,35.77
2022-11-03T13:14:49.303Z,33.18
2022-11-03T13:15:49.132Z,33.18
2022-11-03T13:16:49.537Z,32.08
2022-11-03T13:18:12.077Z,31.90
2022-11-03T13:18:50.019Z,31.38
2022-11-03T13:19:54.362Z,31.68
2022-11-03T13:20:54.020Z,31.98
2022-11-03T13:21:49.011Z,32.78
2022-11-03T13:22:49.020Z,32.78
2022-11-03T13:23:49.136Z,33.48
2022-11-03T13:24:49.650Z,34.48
2022-11-03T13:25:49.089Z,33.76
2022-11-03T13:26:49.011Z,33.87
2022-11-03T13:27:49.097Z,35.06
2022-11-03T13:28:49.158Z,35.75
2022-11-03T13:29:49.068Z,37.34
2022-11-03T13:30:48.939Z,39.13
2022-11-03T13:31:49.211Z,40.62
2022-11-03T13:32:48.929Z,41.31
2022-11-03T13:33:48.817Z,42.71
2022-11-03T13:34:48.986Z,42.21
2022-11-03T13:35:49.040Z,41.42
2022-11-03T13:36:49.024Z,41.52
2022-11-03T13:37:48.869Z,41.02
2022-11-03T13:38:48.794Z,41.22
2022-11-03T13:39:48.808Z,40.72
2022-11-03T13:40:57.219Z,40.62
2022-11-03T13:41:49.887Z,40.62
2022-11-03T13:42:48.753Z,41.31
2022-11-03T13:43:48.739Z,40.52
2022-11-03T13:44:48.735Z,39.73
2022-11-03T13:45:48.937Z,39.23
2022-11-03T13:46:48.748Z,39.83
2022-11-03T13:48:23.162Z,39.53
2022-11-03T13:49:42.336Z,39.21
2022-11-03T13:50:13.086Z,44.10
2022-11-03T13:50:49.677Z,52.81
2022-11-03T13:51:48.583Z,59.80
2022-11-03T13:52:48.808Z,51.30
2022-11-03T13:55:50.417Z,40.41
2022-11-03T13:59:49.743Z,44.73
2022-11-03T14:00:49.322Z,47.49
2022-11-03T14:04:49.896Z,56.60
2022-11-03T14:05:48.622Z,57.29
2022-11-03T14:06:48.432Z,58.88
2022-11-03T14:07:48.513Z,59.45
2022-11-03T14:08:48.437Z,60.94
2022-11-03T14:09:48.732Z,62.52
2022-11-03T14:10:48.502Z,63.42
2022-11-03T14:11:48.504Z,64.50
2022-11-03T14:12:48.394Z,65.79
2022-11-03T14:13:48.514Z,66.16
2022-11-03T14:14:48.390Z,67.24
2022-11-03T14:15:48.328Z,67.84
2022-11-03T14:16:48.450Z,67.84
2022-11-03T14:17:48.380Z,68.93
2022-11-03T14:18:48.544Z,69.59
2022-11-03T14:19:52.427Z,69.89
2022-11-03T14:20:48.516Z,71.08
2022-11-03T14:21:49.340Z,70.87
2022-11-03T14:22:48.335Z,71.37
2022-11-03T14:23:49.277Z,72.36
2022-11-03T14:24:48.300Z,72.75
2022-11-03T14:26:00.427Z,72.92
2022-11-03T14:26:49.464Z,73.71
2022-11-03T14:27:50.856Z,73.61
2022-11-03T14:28:48.896Z,74.21
2022-11-03T14:29:48.691Z,74.86
2022-11-03T14:30:48.191Z,74.96
2022-11-03T14:31:48.299Z,75.75
2022-11-03T14:32:48.180Z,75.16
2022-11-03T14:33:48.709Z,75.75
2022-11-03T14:34:48.816Z,75.95
2022-11-03T14:35:48.192Z,76.34
2022-11-03T14:36:48.236Z,76.80
2022-11-03T14:37:48.506Z,76.94
2022-11-03T14:38:50.125Z,76.70
2022-11-03T14:39:50.289Z,77.20
2022-11-03T14:40:48.097Z,77.79
2022-11-03T14:41:48.150Z,77.10
2022-11-03T14:42:48.433Z,77.79
2022-11-03T14:43:48.257Z,77.89
2022-11-03T14:44:48.127Z,78.15
2022-11-03T14:45:48.209Z,78.44
2022-11-03T14:46:48.054Z,78.25
2022-11-03T14:47:48.063Z,78.94
2022-11-03T14:48:48.014Z,78.64
2022-11-03T14:49:48.104Z,78.55
2022-11-03T14:50:48.026Z,79.24
2022-11-03T14:51:48.302Z,47.34
2022-11-03T14:52:48.220Z,42.44
2022-11-03T14:53:47.932Z,42.60
2022-11-03T14:54:48.158Z,42.03
2022-11-03T14:55:47.973Z,45.68
2022-11-03T14:56:48.026Z,47.74
